createdAt,value
2017-01-23T00:04:38.081Z,1019.59
2017-01-23T00:09:34.390Z,1019.51
2017-01-23T00:14:30.737Z,1019.53
2017-01-23T00:19:27.978Z,1019.62
2017-01-23T00:24:24.142Z,1019.56
2017-01-23T00:29:21.348Z,1019.59
2017-01-23T00:34:17.185Z,1019.64
2017-01-23T00:39:14.081Z,1019.67
2017-01-23T00:44:10.323Z,1019.56
2017-01-23T00:49:06.482Z,1019.53
2017-01-23T00:54:02.650Z,1019.46
2017-01-23T00:58:58.966Z,1019.51
2017-01-23T01:03:55.203Z,1019.70
2017-01-23T01:08:51.602Z,1019.57
2017-01-23T01:13:47.694Z,1019.65
2017-01-23T01:18:43.470Z,1019.70
2017-01-23T01:23:39.580Z,1019.71
2017-01-23T01:28:35.858Z,1019.73
2017-01-23T01:33:32.097Z,1019.74
2017-01-23T01:38:28.076Z,1019.71
2017-01-23T01:43:24.277Z,1019.74
2017-01-23T01:48:20.694Z,1019.79
2017-01-23T01:53:19.172Z,1019.77
2017-01-23T01:58:14.868Z,1019.76
2017-01-23T02:03:11.195Z,1019.68
2017-01-23T02:08:07.198Z,1019.63
2017-01-23T02:13:03.958Z,1019.70
2017-01-23T02:18:00.182Z,1019.68
2017-01-23T02:22:56.240Z,1019.66
2017-01-23T02:27:53.337Z,1019.57
2017-01-23T02:32:50.562Z,1019.62
2017-01-23T02:37:46.548Z,1019.69
2017-01-23T02:42:42.850Z,1019.65
2017-01-23T02:47:39.082Z,1019.61
2017-01-23T02:52:35.365Z,1019.65
2017-01-23T02:57:32.194Z,1019.69
2017-01-23T03:02:29.103Z,1019.64
2017-01-23T03:07:25.393Z,1019.73
2017-01-23T03:12:21.773Z,1019.64
2017-01-23T03:17:18.027Z,1019.78
2017-01-23T03:22:14.289Z,1019.75
2017-01-23T03:27:10.533Z,1019.68
2017-01-23T03:32:06.890Z,1019.73
2017-01-23T03:37:03.371Z,1019.66
2017-01-23T03:42:00.409Z,1019.68
2017-01-23T03:46:57.645Z,1019.64
2017-01-23T03:56:54.271Z,1019.56
2017-01-23T04:01:50.935Z,1019.59
2017-01-23T04:06:46.750Z,1019.58
2017-01-23T04:11:42.800Z,1019.66
2017-01-23T04:16:39.923Z,1019.71
2017-01-23T04:21:36.297Z,1019.69
2017-01-23T04:26:32.347Z,1019.70
2017-01-23T04:31:28.660Z,1019.65
2017-01-23T04:36:25.104Z,1019.72
2017-01-23T04:41:21.322Z,1019.66
2017-01-23T04:46:17.601Z,1019.75
2017-01-23T04:51:13.815Z,1019.64
2017-01-23T04:56:10.882Z,1019.72
2017-01-23T05:01:07.570Z,1019.73
2017-01-23T05:06:03.753Z,1019.63
2017-01-23T05:10:59.935Z,1019.70
2017-01-23T05:15:56.314Z,1019.71
2017-01-23T05:20:53.332Z,1019.67
2017-01-23T05:25:49.660Z,1019.63
2017-01-23T05:30:45.838Z,1019.62
2017-01-23T05:35:42.171Z,1019.68
2017-01-23T05:40:38.892Z,1019.70
2017-01-23T05:45:35.921Z,1019.80
2017-01-23T05:50:32.981Z,1019.84
2017-01-23T05:55:29.945Z,1019.99
2017-01-23T06:00:26.343Z,1020.03
2017-01-23T06:05:22.351Z,1020.04
2017-01-23T06:10:18.472Z,1019.97
2017-01-23T06:15:14.730Z,1019.97
2017-01-23T06:20:12.047Z,1019.86
2017-01-23T06:25:08.277Z,1019.90
2017-01-23T06:30:05.436Z,1019.91
2017-01-23T06:35:01.569Z,1020.10
2017-01-23T06:39:58.218Z,1020.05
2017-01-23T06:44:54.340Z,1020.04
2017-01-23T06:49:50.529Z,1020.12
2017-01-23T06:54:46.875Z,1020.20
2017-01-23T06:59:43.183Z,1020.14
2017-01-23T07:04:39.410Z,1019.99
2017-01-23T07:09:35.812Z,1019.98
2017-01-23T07:14:35.393Z,1019.95
2017-01-23T07:19:31.206Z,1020.19
2017-01-23T07:24:27.306Z,1020.26
2017-01-23T07:29:23.727Z,1020.21
2017-01-23T07:34:20.097Z,1020.17
2017-01-23T07:39:16.397Z,1020.30
2017-01-23T07:44:12.783Z,1020.30
2017-01-23T07:49:10.034Z,1020.28
2017-01-23T07:54:06.021Z,1020.37
2017-01-23T07:59:02.413Z,1020.42
2017-01-23T08:03:58.611Z,1020.52
2017-01-23T08:08:55.250Z,1020.36
2017-01-23T08:13:52.420Z,1020.43
2017-01-23T08:18:48.767Z,1020.44
2017-01-23T08:23:44.903Z,1020.45
2017-01-23T08:28:41.263Z,1020.48
2017-01-23T08:33:37.156Z,1020.52
2017-01-23T08:38:33.558Z,1020.62
2017-01-23T08:43:30.042Z,1020.67
2017-01-23T08:48:26.368Z,1020.60
2017-01-23T08:53:22.619Z,1020.63
2017-01-23T08:58:18.976Z,1020.59
2017-01-23T09:03:15.389Z,1020.61
2017-01-23T09:08:11.627Z,1020.69
2017-01-23T09:13:08.004Z,1020.69
2017-01-23T09:18:04.463Z,1020.85
2017-01-23T09:23:00.751Z,1020.86
2017-01-23T09:27:57.873Z,1020.91
2017-01-23T09:32:54.183Z,1020.78
2017-01-23T09:37:50.303Z,1020.89
2017-01-23T09:42:47.642Z,1020.91
2017-01-23T09:47:44.807Z,1020.86
2017-01-23T09:52:41.212Z,1020.92
2017-01-23T09:57:38.295Z,1020.83
2017-01-23T10:02:34.401Z,1020.93
2017-01-23T10:07:30.779Z,1020.81
2017-01-23T10:12:28.385Z,1020.81
2017-01-23T10:17:24.706Z,1020.72
2017-01-23T10:22:21.004Z,1020.81
2017-01-23T10:27:18.216Z,1020.87
2017-01-23T10:32:14.354Z,1020.88
2017-01-23T10:37:10.766Z,1020.77
2017-01-23T10:42:07.140Z,1020.80
2017-01-23T10:47:03.479Z,1020.83
2017-01-23T10:51:59.567Z,1020.74
2017-01-23T10:56:56.082Z,1020.64
2017-01-23T11:01:52.795Z,1020.70
2017-01-23T11:06:49.011Z,1020.76
2017-01-23T11:11:45.519Z,1020.75
2017-01-23T11:16:41.777Z,1020.82
2017-01-23T11:21:38.446Z,1020.83
2017-01-23T11:26:34.873Z,1020.79
2017-01-23T11:31:30.733Z,1020.89
2017-01-23T11:36:27.065Z,1020.78
2017-01-23T11:41:23.350Z,1020.80
2017-01-23T11:46:19.690Z,1020.78
2017-01-23T11:51:16.002Z,1020.69
2017-01-23T11:56:12.521Z,1020.70
2017-01-23T12:01:08.606Z,1020.64
2017-01-23T12:06:04.935Z,1020.66
2017-01-23T12:11:01.559Z,1020.64
2017-01-23T12:15:57.880Z,1020.57
2017-01-23T12:20:54.543Z,1020.58
2017-01-23T12:25:50.968Z,1020.55
2017-01-23T12:30:47.199Z,1020.43
2017-01-23T12:35:43.429Z,1020.38
2017-01-23T12:40:39.644Z,1020.26
2017-01-23T12:45:35.952Z,1020.41
2017-01-23T12:50:32.195Z,1020.54
2017-01-23T12:55:29.532Z,1020.46
2017-01-23T13:00:25.798Z,1020.38
2017-01-23T13:05:22.056Z,1020.35
2017-01-23T13:10:18.393Z,1020.39
2017-01-23T13:15:15.195Z,1020.30
2017-01-23T13:20:11.754Z,1020.26
2017-01-23T13:25:08.143Z,1020.29
2017-01-23T13:30:05.035Z,1020.19
2017-01-23T13:35:01.917Z,1020.17
2017-01-23T13:39:58.265Z,1020.23
2017-01-23T13:44:54.459Z,1020.26
2017-01-23T13:49:50.850Z,1020.29
2017-01-23T13:54:47.224Z,1020.27
2017-01-23T13:59:43.669Z,1020.22
2017-01-23T14:04:39.785Z,1020.24
2017-01-23T14:09:36.078Z,1020.17
2017-01-23T14:14:32.702Z,1020.15
2017-01-23T14:19:29.180Z,1020.18
2017-01-23T14:24:25.367Z,1020.02
2017-01-23T14:29:21.676Z,1020.05
2017-01-23T14:34:17.854Z,1020.01
2017-01-23T14:39:13.909Z,1020.02
2017-01-23T14:44:10.161Z,1020.05
2017-01-23T14:49:06.296Z,1020.01
2017-01-23T14:54:02.601Z,1020.01
2017-01-23T14:58:58.812Z,1020.01
2017-01-23T15:03:55.005Z,1019.99
2017-01-23T15:08:52.305Z,1020.00
2017-01-23T15:13:50.065Z,1019.98
2017-01-23T15:18:46.549Z,1019.98
2017-01-23T15:23:43.307Z,1020.03
2017-01-23T15:28:39.503Z,1020.03
2017-01-23T15:33:35.664Z,1019.96
2017-01-23T15:38:31.965Z,1019.99
2017-01-23T15:43:29.182Z,1019.92
2017-01-23T15:48:26.039Z,1019.94
2017-01-23T15:53:23.618Z,1019.91
2017-01-23T15:58:19.523Z,1020.01
2017-01-23T16:03:15.976Z,1020.08
2017-01-23T16:08:11.959Z,1020.00
2017-01-23T16:13:08.264Z,1020.07
2017-01-23T16:18:05.275Z,1020.02
2017-01-23T16:23:01.689Z,1020.00
2017-01-23T16:27:58.668Z,1020.04
2017-01-23T16:32:54.924Z,1020.05
2017-01-23T16:37:51.267Z,1020.05
2017-01-23T16:42:47.547Z,1020.13
2017-01-23T16:47:44.006Z,1020.10
2017-01-23T16:52:40.117Z,1020.09
2017-01-23T16:57:36.492Z,1020.02
2017-01-23T17:02:32.807Z,1019.98
2017-01-23T17:07:29.823Z,1019.96
2017-01-23T17:12:26.952Z,1020.06
2017-01-23T17:17:23.330Z,1020.03
2017-01-23T17:22:21.337Z,1020.09
2017-01-23T17:27:17.559Z,1020.06
2017-01-23T17:32:14.008Z,1020.08
2017-01-23T17:37:10.421Z,1020.10
2017-01-23T17:42:06.727Z,1019.94
2017-01-23T17:47:03.065Z,1019.94
2017-01-23T17:51:58.996Z,1019.97
2017-01-23T17:56:55.365Z,1019.91
2017-01-23T18:01:51.626Z,1019.88
2017-01-23T18:06:47.844Z,1019.94
2017-01-23T18:11:44.222Z,1019.94
2017-01-23T18:16:40.452Z,1020.04
2017-01-23T18:21:36.472Z,1020.06
2017-01-23T18:26:32.732Z,1020.00
2017-01-23T18:31:29.002Z,1020.07
2017-01-23T18:36:25.430Z,1020.08
2017-01-23T18:41:21.773Z,1020.07
2017-01-23T18:46:18.139Z,1020.12
2017-01-23T18:51:14.370Z,1020.08
2017-01-23T18:56:10.847Z,1020.08
2017-01-23T19:01:07.221Z,1020.12
2017-01-23T19:06:03.465Z,1020.07
2017-01-23T19:10:59.935Z,1020.05
2017-01-23T19:15:56.635Z,1020.10
2017-01-23T19:20:53.783Z,1020.11
2017-01-23T19:25:50.232Z,1020.12
2017-01-23T19:30:46.341Z,1020.06
2017-01-23T19:35:42.749Z,1020.02
2017-01-23T19:40:39.142Z,1020.08
2017-01-23T19:45:35.314Z,1019.97
2017-01-23T19:50:32.673Z,1019.95
2017-01-23T19:55:28.957Z,1019.93
2017-01-23T20:00:25.248Z,1019.96
2017-01-23T20:05:21.746Z,1019.91
2017-01-23T20:10:18.239Z,1019.82
2017-01-23T20:15:14.553Z,1019.87
2017-01-23T20:20:11.908Z,1019.91
2017-01-23T20:25:07.892Z,1019.90
2017-01-23T20:30:04.261Z,1019.98
2017-01-23T20:35:00.617Z,1019.91
2017-01-23T20:39:57.055Z,1019.91
2017-01-23T20:44:53.684Z,1019.99
2017-01-23T20:49:49.880Z,1020.05
2017-01-23T20:54:46.217Z,1020.00
2017-01-23T20:59:42.614Z,1020.02
2017-01-23T21:04:39.042Z,1019.91
2017-01-23T21:09:35.352Z,1019.92
2017-01-23T21:14:31.980Z,1020.03
2017-01-23T21:19:28.366Z,1019.99
2017-01-23T21:24:24.676Z,1019.91
2017-01-23T21:29:21.753Z,1019.87
2017-01-23T21:34:18.216Z,1019.93
2017-01-23T21:39:14.698Z,1020.03
2017-01-23T21:44:11.557Z,1020.00
2017-01-23T21:49:08.596Z,1019.95
2017-01-23T21:54:04.818Z,1019.89
2017-01-23T21:59:01.322Z,1019.96
2017-01-23T22:03:57.540Z,1020.03
2017-01-23T22:08:54.020Z,1020.00
2017-01-23T22:13:50.296Z,1020.00
2017-01-23T22:18:46.557Z,1019.99
2017-01-23T22:23:43.035Z,1020.11
2017-01-23T22:28:39.273Z,1020.01
2017-01-23T22:33:37.200Z,1020.01
2017-01-23T22:38:33.218Z,1019.95
2017-01-23T22:43:29.333Z,1019.89
2017-01-23T22:48:26.062Z,1020.00
2017-01-23T22:53:23.226Z,1019.99
2017-01-23T22:58:19.634Z,1019.88
2017-01-23T23:03:16.289Z,1020.00
2017-01-23T23:08:12.557Z,1019.95
2017-01-23T23:13:09.010Z,1019.84
2017-01-23T23:18:05.531Z,1019.81
2017-01-23T23:23:02.264Z,1019.81
2017-01-23T23:27:58.438Z,1019.80
2017-01-23T23:32:55.494Z,1019.84
2017-01-23T23:37:51.750Z,1019.85
2017-01-23T23:42:50.429Z,1019.93
2017-01-23T23:47:46.319Z,1019.98
2017-01-23T23:52:42.041Z,1019.90
2017-01-23T23:57:38.599Z,1019.97
